createdAt,value
2023-04-24T00:00:46.261Z,16.40
2023-04-24T00:03:16.718Z,16.40
2023-04-24T00:05:46.981Z,16.40
2023-04-24T00:08:15.670Z,16.40
2023-04-24T00:10:44.706Z,16.40
2023-04-24T00:13:13.767Z,16.40
2023-04-24T00:15:42.341Z,16.40
2023-04-24T00:18:10.775Z,16.40
2023-04-24T00:20:39.143Z,16.30
2023-04-24T00:23:09.281Z,16.40
2023-04-24T00:25:37.611Z,16.30
2023-04-24T00:28:06.224Z,16.30
2023-04-24T00:30:34.721Z,16.30
2023-04-24T00:33:03.120Z,16.20
2023-04-24T00:35:31.801Z,16.20
2023-04-24T00:38:00.593Z,16.20
2023-04-24T00:40:31.416Z,16.20
2023-04-24T00:42:59.883Z,16.10
2023-04-24T00:45:28.685Z,16.10
2023-04-24T00:47:57.677Z,16.10
2023-04-24T00:50:27.505Z,16.00
2023-04-24T00:52:56.347Z,16.00
2023-04-24T00:55:24.893Z,15.90
2023-04-24T00:57:55.325Z,16.00
2023-04-24T01:00:24.727Z,15.90
2023-04-24T01:02:55.074Z,15.90
2023-04-24T01:05:24.022Z,15.90
2023-04-24T01:07:52.486Z,15.90
2023-04-24T01:10:21.727Z,15.80
2023-04-24T01:12:50.738Z,15.80
2023-04-24T01:15:20.536Z,15.80
2023-04-24T01:17:49.097Z,15.70
2023-04-24T01:20:18.141Z,15.70
2023-04-24T01:22:48.309Z,15.70
2023-04-24T01:25:17.499Z,15.70
2023-04-24T01:27:46.661Z,15.70
2023-04-24T01:30:16.682Z,15.60
2023-04-24T01:32:47.253Z,15.60
2023-04-24T01:35:15.825Z,15.60
2023-04-24T01:37:44.203Z,15.60
2023-04-24T01:40:14.304Z,15.50
2023-04-24T01:42:44.138Z,15.50
2023-04-24T01:45:14.823Z,15.50
2023-04-24T01:47:44.192Z,15.50
2023-04-24T01:50:12.872Z,15.50
2023-04-24T01:52:41.343Z,15.50
2023-04-24T01:55:14.153Z,15.40
2023-04-24T01:57:42.697Z,15.50
2023-04-24T02:00:13.377Z,15.40
2023-04-24T02:02:45.665Z,15.40
2023-04-24T02:05:16.079Z,15.40
2023-04-24T02:07:44.511Z,15.40
2023-04-24T02:10:14.369Z,15.40
2023-04-24T02:12:45.884Z,15.40
2023-04-24T02:15:14.484Z,15.40
2023-04-24T02:17:43.182Z,15.30
2023-04-24T02:20:12.535Z,15.30
2023-04-24T02:22:41.017Z,15.30
2023-04-24T02:25:10.628Z,15.30
2023-04-24T02:27:40.985Z,15.30
2023-04-24T02:30:11.125Z,15.30
2023-04-24T02:32:40.107Z,15.30
2023-04-24T02:35:09.818Z,15.30
2023-04-24T02:37:38.174Z,15.20
2023-04-24T02:40:08.673Z,15.20
2023-04-24T02:42:37.081Z,15.20
2023-04-24T02:45:08.687Z,15.20
2023-04-24T02:47:37.269Z,15.20
2023-04-24T02:50:07.324Z,15.10
2023-04-24T02:52:36.023Z,15.10
2023-04-24T02:55:05.361Z,15.10
2023-04-24T02:57:33.781Z,15.00
2023-04-24T03:00:02.439Z,15.00
2023-04-24T03:02:32.344Z,15.00
2023-04-24T03:05:00.872Z,14.90
2023-04-24T03:07:29.255Z,14.90
2023-04-24T03:09:59.102Z,14.90
2023-04-24T03:12:28.959Z,14.90
2023-04-24T03:14:57.236Z,14.90
2023-04-24T03:17:25.909Z,14.90
2023-04-24T03:19:56.429Z,14.80
2023-04-24T03:22:25.060Z,14.80
2023-04-24T03:24:55.816Z,14.90
2023-04-24T03:27:24.746Z,14.80
2023-04-24T03:29:59.182Z,14.80
2023-04-24T03:32:35.961Z,14.80
2023-04-24T03:35:08.412Z,14.80
2023-04-24T03:37:37.242Z,14.80
2023-04-24T03:40:25.573Z,14.70
2023-04-24T03:42:54.142Z,14.80
2023-04-24T03:45:22.954Z,14.70
2023-04-24T03:47:53.533Z,14.70
2023-04-24T03:50:23.726Z,14.70
2023-04-24T03:52:52.489Z,14.70
2023-04-24T03:55:32.333Z,14.70
2023-04-24T03:58:00.929Z,14.70
2023-04-24T04:00:29.663Z,14.70
2023-04-24T04:03:18.100Z,14.70
2023-04-24T04:05:47.984Z,14.70
2023-04-24T04:08:16.657Z,14.70
2023-04-24T04:10:45.636Z,14.70
2023-04-24T04:13:14.625Z,14.70
2023-04-24T04:15:43.587Z,14.70
2023-04-24T04:18:12.666Z,14.70
2023-04-24T04:20:41.585Z,14.70
2023-04-24T04:23:12.587Z,14.70
2023-04-24T04:25:52.847Z,14.70
2023-04-24T04:28:25.618Z,14.70
2023-04-24T04:30:54.813Z,14.70
2023-04-24T04:33:23.834Z,14.70
2023-04-24T04:35:53.025Z,14.70
2023-04-24T04:38:23.690Z,14.70
2023-04-24T04:41:19.232Z,14.70
2023-04-24T04:43:48.640Z,14.70
2023-04-24T04:46:18.204Z,14.70
2023-04-24T04:48:59.896Z,14.70
2023-04-24T04:51:28.229Z,14.70
2023-04-24T04:53:58.347Z,14.70
2023-04-24T04:56:26.880Z,14.70
2023-04-24T04:58:55.407Z,14.60
2023-04-24T05:01:25.250Z,14.70
2023-04-24T05:03:54.100Z,14.70
2023-04-24T05:06:24.471Z,14.60
2023-04-24T05:08:58.106Z,14.60
2023-04-24T05:11:36.027Z,14.60
2023-04-24T05:14:05.536Z,14.60
2023-04-24T05:16:38.039Z,14.60
2023-04-24T05:19:08.157Z,14.50
2023-04-24T05:21:41.250Z,14.60
2023-04-24T05:24:10.820Z,14.60
2023-04-24T05:27:08.127Z,14.60
2023-04-24T05:29:41.260Z,14.60
2023-04-24T05:32:10.814Z,14.60
2023-04-24T05:34:39.964Z,14.60
2023-04-24T05:37:11.152Z,14.60
2023-04-24T05:39:42.563Z,14.60
2023-04-24T05:42:12.541Z,14.50
2023-04-24T05:44:40.864Z,14.60
2023-04-24T05:47:09.369Z,14.50
2023-04-24T05:49:37.886Z,14.50
2023-04-24T05:52:09.652Z,14.50
2023-04-24T05:54:39.603Z,14.50
2023-04-24T05:57:09.064Z,14.50
2023-04-24T05:59:53.420Z,14.40
2023-04-24T06:02:23.809Z,14.40
2023-04-24T06:04:53.208Z,14.40
2023-04-24T06:07:22.247Z,14.40
2023-04-24T06:09:50.838Z,14.40
2023-04-24T06:12:19.593Z,14.40
2023-04-24T06:14:57.771Z,14.30
2023-04-24T06:17:34.184Z,14.40
2023-04-24T06:20:04.850Z,14.40
2023-04-24T06:22:33.414Z,14.30
2023-04-24T06:25:02.552Z,14.40
2023-04-24T06:27:31.111Z,14.30
2023-04-24T06:30:00.930Z,14.30
2023-04-24T06:32:29.809Z,14.30
2023-04-24T06:34:59.511Z,14.30
2023-04-24T06:37:28.420Z,14.30
2023-04-24T06:39:56.807Z,14.20
2023-04-24T06:42:25.749Z,14.20
2023-04-24T06:44:54.177Z,14.20
2023-04-24T06:47:24.149Z,14.20
2023-04-24T06:49:53.604Z,14.20
2023-04-24T06:52:22.233Z,14.20
2023-04-24T06:54:50.703Z,14.20
2023-04-24T06:57:19.685Z,14.20
2023-04-24T06:59:48.073Z,14.20
2023-04-24T07:02:16.621Z,14.20
2023-04-24T07:04:46.697Z,14.20
2023-04-24T07:07:16.755Z,14.20
2023-04-24T07:09:46.540Z,14.30
2023-04-24T07:12:15.326Z,14.30
2023-04-24T07:14:43.953Z,14.30
2023-04-24T07:17:14.160Z,14.30
2023-04-24T07:19:43.149Z,14.30
2023-04-24T07:22:17.718Z,14.30
2023-04-24T07:24:46.200Z,14.30
2023-04-24T07:27:16.041Z,14.30
2023-04-24T07:29:46.254Z,14.30
2023-04-24T07:32:15.085Z,14.30
2023-04-24T07:34:43.429Z,14.30
2023-04-24T07:37:13.226Z,14.20
2023-04-24T07:39:41.778Z,14.20
2023-04-24T07:42:10.401Z,14.20
2023-04-24T07:44:38.842Z,14.20
2023-04-24T07:47:07.308Z,14.10
2023-04-24T07:49:36.214Z,14.10
2023-04-24T07:52:04.893Z,14.10
2023-04-24T07:54:35.467Z,14.00
2023-04-24T07:57:04.295Z,14.00
2023-04-24T07:59:32.659Z,14.10
2023-04-24T08:02:02.296Z,14.00
2023-04-24T08:04:31.001Z,14.00
2023-04-24T08:06:59.763Z,14.00
2023-04-24T08:09:28.227Z,14.00
2023-04-24T08:11:58.836Z,13.90
2023-04-24T08:14:27.460Z,14.00
2023-04-24T08:16:57.475Z,14.00
2023-04-24T08:19:26.584Z,13.90
2023-04-24T08:21:54.918Z,13.90
2023-04-24T08:24:24.856Z,13.80
2023-04-24T08:26:55.118Z,13.80
2023-04-24T08:29:25.044Z,13.80
2023-04-24T08:31:55.581Z,13.80
2023-04-24T08:34:24.237Z,13.80
2023-04-24T08:36:53.292Z,13.80
2023-04-24T08:39:22.460Z,13.80
2023-04-24T08:41:51.178Z,13.80
2023-04-24T08:44:21.814Z,13.80
2023-04-24T08:46:52.425Z,13.80
2023-04-24T08:49:22.254Z,13.70
2023-04-24T08:51:51.556Z,13.80
2023-04-24T08:54:21.050Z,13.70
2023-04-24T08:56:51.302Z,13.70
2023-04-24T08:59:20.136Z,13.60
2023-04-24T09:01:52.376Z,13.60
2023-04-24T09:04:23.294Z,13.60
2023-04-24T09:06:52.063Z,13.60
2023-04-24T09:09:20.738Z,13.60
2023-04-24T09:11:51.394Z,13.50
2023-04-24T09:14:20.071Z,13.50
2023-04-24T09:16:49.248Z,13.50
2023-04-24T09:19:19.409Z,13.50
2023-04-24T09:21:48.851Z,13.40
2023-04-24T09:24:19.793Z,13.40
2023-04-24T09:26:48.448Z,13.40
2023-04-24T09:29:19.107Z,13.40
2023-04-24T09:31:48.456Z,13.40
2023-04-24T09:34:23.463Z,13.40
2023-04-24T09:36:52.376Z,13.40
2023-04-24T09:39:22.533Z,13.40
2023-04-24T09:41:53.501Z,13.40
2023-04-24T09:44:24.088Z,13.50
2023-04-24T09:46:54.531Z,13.40
2023-04-24T09:49:26.829Z,13.40
2023-04-24T09:52:05.064Z,13.50
2023-04-24T09:54:34.241Z,13.50
2023-04-24T09:57:03.028Z,13.50
2023-04-24T09:59:33.212Z,13.50
2023-04-24T10:02:03.070Z,13.50
2023-04-24T10:04:32.959Z,13.50
2023-04-24T10:07:02.238Z,13.50
2023-04-24T10:09:30.632Z,13.50
2023-04-24T10:11:59.085Z,13.40
2023-04-24T10:14:27.983Z,13.40
2023-04-24T10:16:58.923Z,13.30
2023-04-24T10:19:28.653Z,13.30
2023-04-24T10:21:59.513Z,13.20
2023-04-24T10:24:28.350Z,13.10
2023-04-24T10:26:57.999Z,13.10
2023-04-24T10:29:27.851Z,13.00
2023-04-24T10:31:56.519Z,12.90
2023-04-24T10:34:26.011Z,12.80
2023-04-24T10:36:57.876Z,12.70
2023-04-24T10:39:28.406Z,12.70
2023-04-24T10:41:58.871Z,12.70
2023-04-24T10:44:27.814Z,12.70
2023-04-24T10:46:57.784Z,12.70
2023-04-24T10:49:32.069Z,12.70
2023-04-24T10:52:06.475Z,12.70
2023-04-24T10:54:44.085Z,12.70
2023-04-24T10:57:33.477Z,12.70
2023-04-24T11:00:22.203Z,12.70
2023-04-24T11:02:53.872Z,12.70
2023-04-24T11:05:24.265Z,12.80
2023-04-24T11:08:17.048Z,12.80
2023-04-24T11:11:01.665Z,12.80
2023-04-24T11:14:09.844Z,12.80
2023-04-24T11:16:46.809Z,12.80
2023-04-24T11:19:25.829Z,12.90
2023-04-24T11:22:18.309Z,12.80
2023-04-24T11:24:53.021Z,12.80
2023-04-24T11:27:26.747Z,12.90
2023-04-24T11:30:02.921Z,13.00
2023-04-24T11:32:36.216Z,12.90
2023-04-24T11:35:08.604Z,13.00
2023-04-24T11:37:41.315Z,13.00
2023-04-24T11:40:13.238Z,13.00
2023-04-24T11:42:43.846Z,13.00
2023-04-24T11:45:14.597Z,13.00
2023-04-24T11:47:44.540Z,13.00
2023-04-24T11:50:14.963Z,13.10
2023-04-24T11:52:46.368Z,13.10
2023-04-24T11:55:28.260Z,13.10
2023-04-24T11:57:59.008Z,13.10
2023-04-24T12:00:30.082Z,13.20
2023-04-24T12:03:08.848Z,13.30
2023-04-24T12:05:38.225Z,13.30
2023-04-24T12:08:09.375Z,13.30
2023-04-24T12:10:38.531Z,13.30
2023-04-24T12:13:07.073Z,13.30
2023-04-24T12:15:35.546Z,13.30
2023-04-24T12:18:05.846Z,13.30
2023-04-24T12:20:35.712Z,13.30
2023-04-24T12:23:04.336Z,13.20
2023-04-24T12:25:35.538Z,13.20
2023-04-24T12:28:13.133Z,13.20
2023-04-24T12:30:45.636Z,13.20
2023-04-24T12:33:14.486Z,13.20
2023-04-24T12:35:43.841Z,13.20
2023-04-24T12:38:15.073Z,13.30
2023-04-24T12:40:46.519Z,13.30
2023-04-24T12:43:19.973Z,13.40
2023-04-24T12:45:50.135Z,13.50
2023-04-24T12:48:18.611Z,13.50
2023-04-24T12:50:47.677Z,13.60
2023-04-24T12:53:17.076Z,13.60
2023-04-24T12:55:48.117Z,13.60
2023-04-24T12:58:16.542Z,13.60
2023-04-24T13:00:46.758Z,13.60
2023-04-24T13:03:16.801Z,13.60
2023-04-24T13:05:45.775Z,13.60
2023-04-24T13:08:14.865Z,13.60
2023-04-24T13:10:43.392Z,13.60
2023-04-24T13:13:13.344Z,13.50
2023-04-24T13:15:41.831Z,13.50
2023-04-24T13:18:10.224Z,13.50
2023-04-24T13:20:38.716Z,13.50
2023-04-24T13:23:07.071Z,13.50
2023-04-24T13:25:40.112Z,13.50
2023-04-24T13:28:08.929Z,13.60
2023-04-24T13:30:38.967Z,13.60
2023-04-24T13:33:07.658Z,13.70
2023-04-24T13:35:36.053Z,13.70
2023-04-24T13:38:07.001Z,13.80
2023-04-24T13:40:35.792Z,13.80
2023-04-24T13:43:04.808Z,13.90
2023-04-24T13:45:33.588Z,13.90
2023-04-24T13:48:04.128Z,13.90
2023-04-24T13:50:32.954Z,13.90
2023-04-24T13:53:02.980Z,14.00
2023-04-24T13:55:32.258Z,13.90
2023-04-24T13:58:02.333Z,13.90
2023-04-24T14:00:31.041Z,13.90
2023-04-24T14:02:59.670Z,13.90
2023-04-24T14:05:29.725Z,13.80
2023-04-24T14:07:58.128Z,13.80
2023-04-24T14:10:28.060Z,13.80
2023-04-24T14:12:56.575Z,13.80
2023-04-24T14:15:24.878Z,13.80
2023-04-24T14:17:53.355Z,13.80
2023-04-24T14:20:21.994Z,13.90
2023-04-24T14:22:51.804Z,13.80
2023-04-24T14:25:20.258Z,13.90
2023-04-24T14:27:49.267Z,13.90
2023-04-24T14:30:17.935Z,13.90
2023-04-24T14:32:46.810Z,14.00
2023-04-24T14:35:16.024Z,14.00
2023-04-24T14:37:44.558Z,14.10
2023-04-24T14:40:33.751Z,14.10
2023-04-24T14:43:03.755Z,14.10
2023-04-24T14:45:32.330Z,14.20
2023-04-24T14:48:00.966Z,14.20
2023-04-24T14:50:30.211Z,14.20
2023-04-24T14:52:59.797Z,14.20
2023-04-24T14:55:30.136Z,14.30
2023-04-24T14:57:58.520Z,14.20
2023-04-24T15:00:26.919Z,14.20
2023-04-24T15:02:56.360Z,14.20
2023-04-24T15:05:26.342Z,14.20
2023-04-24T15:07:55.250Z,14.20
2023-04-24T15:10:25.225Z,14.10
2023-04-24T15:12:55.312Z,14.10
2023-04-24T15:15:23.830Z,14.10
2023-04-24T15:17:52.208Z,14.10
2023-04-24T15:20:20.865Z,14.00
2023-04-24T15:22:49.432Z,14.00
2023-04-24T15:25:17.931Z,14.00
2023-04-24T15:27:47.928Z,13.90
2023-04-24T15:30:17.837Z,13.90
2023-04-24T15:32:46.607Z,13.80
2023-04-24T15:35:15.618Z,13.70
2023-04-24T15:37:44.488Z,13.70
2023-04-24T15:40:16.503Z,13.70
2023-04-24T15:42:45.715Z,13.70
2023-04-24T15:45:14.475Z,13.70
2023-04-24T15:47:47.080Z,13.70
2023-04-24T15:50:17.302Z,13.70
2023-04-24T15:52:45.879Z,13.70
2023-04-24T15:55:14.336Z,13.70
2023-04-24T15:57:44.057Z,13.70
2023-04-24T16:00:13.908Z,13.80
2023-04-24T16:02:44.080Z,13.80
2023-04-24T16:05:12.685Z,13.80
2023-04-24T16:07:41.192Z,13.90
2023-04-24T16:10:11.955Z,13.90
2023-04-24T16:12:40.835Z,13.90
2023-04-24T16:15:10.123Z,14.00
2023-04-24T16:17:38.710Z,14.00
2023-04-24T16:20:10.384Z,14.00
2023-04-24T16:22:39.791Z,14.00
2023-04-24T16:25:10.621Z,14.10
2023-04-24T16:27:39.309Z,14.00
2023-04-24T16:30:09.694Z,14.00
2023-04-24T16:32:38.536Z,14.00
2023-04-24T16:35:10.269Z,14.00
2023-04-24T16:37:39.120Z,14.00
2023-04-24T16:40:10.966Z,14.00
2023-04-24T16:42:40.612Z,14.10
2023-04-24T16:45:11.460Z,14.00
2023-04-24T16:47:39.953Z,14.00
2023-04-24T16:50:12.619Z,14.10
2023-04-24T16:52:41.019Z,14.10
2023-04-24T16:55:10.604Z,14.10
2023-04-24T16:57:39.323Z,14.10
2023-04-24T17:00:09.968Z,14.10
2023-04-24T17:02:38.701Z,14.10
2023-04-24T17:05:09.892Z,14.10
2023-04-24T17:07:38.352Z,14.10
2023-04-24T17:10:09.062Z,14.10
2023-04-24T17:12:37.473Z,14.00
2023-04-24T17:15:08.042Z,14.00
2023-04-24T17:17:36.603Z,14.00
2023-04-24T17:20:18.597Z,14.00
2023-04-24T17:22:52.646Z,14.00
2023-04-24T17:25:21.534Z,13.90
2023-04-24T17:27:50.082Z,13.90
2023-04-24T17:30:18.723Z,13.80
2023-04-24T17:32:47.240Z,13.80
2023-04-24T17:35:15.914Z,13.70
2023-04-24T17:37:45.000Z,13.70
2023-04-24T17:40:15.275Z,13.70
2023-04-24T17:42:43.761Z,13.60
2023-04-24T17:45:13.421Z,13.50
2023-04-24T17:47:42.399Z,13.50
2023-04-24T17:50:11.438Z,13.50
2023-04-24T17:52:40.394Z,13.40
2023-04-24T17:55:09.970Z,13.40
2023-04-24T17:57:40.153Z,13.40
2023-04-24T18:00:10.537Z,13.40
2023-04-24T18:02:39.239Z,13.40
2023-04-24T18:05:08.037Z,13.30
2023-04-24T18:07:36.429Z,13.30
2023-04-24T18:10:06.422Z,13.30
2023-04-24T18:12:35.154Z,13.30
2023-04-24T18:15:13.856Z,13.30
2023-04-24T18:17:43.099Z,13.30
2023-04-24T18:20:12.438Z,13.30
2023-04-24T18:22:41.503Z,13.30
2023-04-24T18:25:11.624Z,13.30
2023-04-24T18:27:41.067Z,13.30
2023-04-24T18:30:14.399Z,13.30
2023-04-24T18:32:43.551Z,13.30
2023-04-24T18:35:12.309Z,13.30
2023-04-24T18:37:41.133Z,13.30
2023-04-24T18:40:11.568Z,13.30
2023-04-24T18:42:40.469Z,13.30
2023-04-24T18:45:14.987Z,13.30
2023-04-24T18:47:44.272Z,13.30
2023-04-24T18:50:14.626Z,13.20
2023-04-24T18:52:43.140Z,13.20
2023-04-24T18:55:11.896Z,13.20
2023-04-24T18:57:40.834Z,13.20
2023-04-24T19:00:12.988Z,13.20
2023-04-24T19:02:41.533Z,13.20
2023-04-24T19:05:12.023Z,13.20
2023-04-24T19:07:42.150Z,13.10
2023-04-24T19:10:11.639Z,13.10
2023-04-24T19:12:40.349Z,13.10
2023-04-24T19:15:13.003Z,13.20
2023-04-24T19:17:41.646Z,13.10
2023-04-24T19:20:10.914Z,13.10
2023-04-24T19:22:39.800Z,13.10
2023-04-24T19:25:09.782Z,13.10
2023-04-24T19:27:38.194Z,13.10
2023-04-24T19:30:08.571Z,13.10
2023-04-24T19:32:38.437Z,13.10
2023-04-24T19:35:07.607Z,13.10
2023-04-24T19:37:36.641Z,13.10
2023-04-24T19:40:06.664Z,13.10
2023-04-24T19:42:43.214Z,13.10
2023-04-24T19:45:13.974Z,13.10
2023-04-24T19:47:44.282Z,13.10
2023-04-24T19:50:14.967Z,13.10
2023-04-24T19:52:43.518Z,13.10
2023-04-24T19:55:12.267Z,13.10
2023-04-24T19:57:40.738Z,13.10
2023-04-24T20:00:11.087Z,13.00
2023-04-24T20:02:39.730Z,13.00
2023-04-24T20:05:11.800Z,13.00
2023-04-24T20:07:40.498Z,13.00
2023-04-24T20:10:11.962Z,13.00
2023-04-24T20:12:41.153Z,13.00
2023-04-24T20:15:11.379Z,13.00
2023-04-24T20:17:40.087Z,13.00
2023-04-24T20:20:12.288Z,13.00
2023-04-24T20:22:41.045Z,12.90
2023-04-24T20:25:11.553Z,12.90
2023-04-24T20:27:40.914Z,12.90
2023-04-24T20:30:13.219Z,12.90
2023-04-24T20:32:42.684Z,12.90
2023-04-24T20:35:13.443Z,12.90
2023-04-24T20:37:42.400Z,12.90
2023-04-24T20:40:14.495Z,12.90
2023-04-24T20:42:43.971Z,12.90
2023-04-24T20:45:12.899Z,12.90
2023-04-24T20:47:41.340Z,12.90
2023-04-24T20:50:12.931Z,12.90
2023-04-24T20:52:42.431Z,12.90
2023-04-24T20:55:11.518Z,12.80
2023-04-24T20:57:40.224Z,12.80
2023-04-24T21:00:10.852Z,12.80
2023-04-24T21:02:39.712Z,12.80
2023-04-24T21:05:10.204Z,12.80
2023-04-24T21:07:40.348Z,12.80
2023-04-24T21:10:10.579Z,12.80
2023-04-24T21:12:38.961Z,12.80
2023-04-24T21:15:09.524Z,12.70
2023-04-24T21:17:37.910Z,12.70
2023-04-24T21:20:07.683Z,12.70
2023-04-24T21:22:36.054Z,12.70
2023-04-24T21:25:06.969Z,12.70
2023-04-24T21:27:35.432Z,12.70
2023-04-24T21:30:04.802Z,12.70
2023-04-24T21:32:33.578Z,12.70
2023-04-24T21:35:02.291Z,12.70
2023-04-24T21:37:32.784Z,12.70
2023-04-24T21:40:01.096Z,12.60
2023-04-24T21:42:31.158Z,12.60
2023-04-24T21:44:59.634Z,12.70
2023-04-24T21:47:28.118Z,12.60
2023-04-24T21:49:56.528Z,12.60
2023-04-24T21:52:25.551Z,12.60
2023-04-24T21:54:53.987Z,12.60
2023-04-24T21:57:22.411Z,12.50
2023-04-24T21:59:52.906Z,12.50
2023-04-24T22:02:22.189Z,12.50
2023-04-24T22:04:51.897Z,12.50
2023-04-24T22:07:20.485Z,12.50
2023-04-24T22:09:48.976Z,12.50
2023-04-24T22:12:18.513Z,12.50
2023-04-24T22:14:47.209Z,12.50
2023-04-24T22:17:17.725Z,12.50
2023-04-24T22:19:46.466Z,12.50
2023-04-24T22:22:15.223Z,12.50
2023-04-24T22:24:44.114Z,12.50
2023-04-24T22:27:12.754Z,12.40
2023-04-24T22:29:41.428Z,12.40
2023-04-24T22:32:10.103Z,12.40
2023-04-24T22:34:40.018Z,12.30
2023-04-24T22:37:09.112Z,12.30
2023-04-24T22:39:37.444Z,12.30
2023-04-24T22:42:06.162Z,12.30
2023-04-24T22:44:34.743Z,12.30
2023-04-24T22:47:06.997Z,12.20
2023-04-24T22:49:35.983Z,12.20
2023-04-24T22:52:06.400Z,12.20
2023-04-24T22:54:35.988Z,12.20
2023-04-24T22:57:04.569Z,12.10
2023-04-24T22:59:33.079Z,12.10
2023-04-24T23:02:01.732Z,12.10
2023-04-24T23:04:30.299Z,12.10
2023-04-24T23:06:58.656Z,12.10
2023-04-24T23:09:29.347Z,12.00
2023-04-24T23:11:58.564Z,12.00
2023-04-24T23:14:26.918Z,12.00
2023-04-24T23:16:55.347Z,12.00
2023-04-24T23:19:24.151Z,12.00
2023-04-24T23:21:52.917Z,12.00
2023-04-24T23:24:21.287Z,12.00
2023-04-24T23:26:51.611Z,12.00
2023-04-24T23:29:23.118Z,12.00
2023-04-24T23:31:51.541Z,12.00
2023-04-24T23:34:20.312Z,12.00
2023-04-24T23:36:50.713Z,12.00
2023-04-24T23:39:19.347Z,11.90
2023-04-24T23:41:49.414Z,11.90
2023-04-24T23:44:19.438Z,11.90
2023-04-24T23:46:47.765Z,11.90
2023-04-24T23:49:16.109Z,11.90
2023-04-24T23:51:45.024Z,11.90
2023-04-24T23:54:14.443Z,11.80
2023-04-24T23:56:43.033Z,11.90
2023-04-24T23:59:11.862Z,11.80
